Time;durP1;ratioP1;P1;durP2;ratioP2;P2;SDS_P1;SDS_P2;PMS_P1;PMS_P2;Temp;Humidity;BMP_temperature;BMP_pressure;BME280_temperature;BME280_humidity;BME280_pressure;Samples;Min_cycle;Max_cycle;Signal;HPM_P1;HPM_P2
2022/10/21 03:02:22;;;;;;;1.33;1.30;;;16.30;89.80;;;;;;5381361;22;20539;-74
2022/10/21 03:04:48;;;;;;;1.23;1.20;;;16.40;89.40;;;;;;5076534;28;20441;-74
2022/10/21 03:07:15;;;;;;;1.33;1.30;;;16.40;89.00;;;;;;5076504;28;20445;-74
2022/10/21 03:09:42;;;;;;;2.00;1.53;;;16.30;89.60;;;;;;5076377;28;20488;-74
2022/10/21 03:12:09;;;;;;;1.20;1.10;;;16.40;89.40;;;;;;5076020;28;20495;-74
2022/10/21 03:14:35;;;;;;;1.40;1.30;;;16.40;89.20;;;;;;5077497;28;20438;-74
2022/10/21 03:17:02;;;;;;;1.27;1.17;;;16.50;88.70;;;;;;5076321;28;20445;-74
2022/10/21 03:19:30;;;;;;;1.20;1.10;;;16.50;88.50;;;;;;5076267;28;20468;-74
2022/10/21 03:21:57;;;;;;;1.60;1.50;;;16.30;88.70;;;;;;5076147;28;20466;-74
2022/10/21 03:24:23;;;;;;;1.60;1.50;;;16.10;89.20;;;;;;5076205;28;20437;-74
2022/10/21 03:26:50;;;;;;;1.30;1.20;;;16.00;89.90;;;;;;5076156;28;20453;-74
2022/10/21 03:29:17;;;;;;;1.37;1.27;;;16.10;89.90;;;;;;5075993;28;20445;-74
2022/10/21 03:31:43;;;;;;;1.20;1.20;;;16.10;90.10;;;;;;5075996;28;20473;-74
2022/10/21 03:34:10;;;;;;;1.10;1.00;;;16.10;89.50;;;;;;5075979;28;20445;-74
2022/10/21 03:36:38;;;;;;;1.10;1.10;;;15.80;90.30;;;;;;5075977;28;20446;-74
2022/10/21 03:39:05;;;;;;;1.20;1.20;;;15.40;92.00;;;;;;5075895;28;20446;-74
2022/10/21 03:41:31;;;;;;;1.40;1.30;;;15.20;93.40;;;;;;5075510;28;20851;-73
2022/10/21 03:43:58;;;;;;;2.30;1.23;;;15.50;92.40;;;;;;5075841;28;20452;-74
2022/10/21 03:46:25;;;;;;;1.20;1.10;;;15.70;91.70;;;;;;5075798;28;20499;-74
2022/10/21 03:48:51;;;;;;;1.10;1.10;;;15.80;91.00;;;;;;5075425;28;20871;-73
2022/10/21 03:51:18;;;;;;;1.10;1.10;;;15.90;90.70;;;;;;5075525;28;20497;-74
2022/10/21 03:53:46;;;;;;;0.97;0.97;;;16.00;90.10;;;;;;5075685;28;20454;-74
2022/10/21 03:56:13;;;;;;;1.40;1.30;;;16.00;90.10;;;;;;5075609;28;20446;-74
2022/10/21 03:58:40;;;;;;;1.50;1.20;;;16.10;89.70;;;;;;5075568;28;20452;-74
2022/10/21 04:01:09;;;;;;;1.30;1.20;;;16.20;89.40;;;;;;5074929;28;20469;-74
2022/10/21 04:03:36;;;;;;;0.80;0.80;;;16.20;89.10;;;;;;5075430;28;20445;-74
2022/10/21 04:06:03;;;;;;;1.00;1.00;;;16.30;89.00;;;;;;5075075;28;20799;-74
2022/10/21 04:08:30;;;;;;;1.13;1.13;;;16.30;88.80;;;;;;5075360;28;20441;-74
2022/10/21 04:10:58;;;;;;;1.20;1.10;;;16.30;88.90;;;;;;5074849;28;20534;-74
2022/10/21 04:13:25;;;;;;;1.10;1.00;;;16.40;88.80;;;;;;5074935;28;20836;-74
2022/10/21 04:15:57;;;;;;;1.27;0.97;;;16.40;88.70;;;;;;5075230;28;20446;-74
2022/10/21 04:18:24;;;;;;;1.20;1.20;;;16.50;88.50;;;;;;5074893;28;20897;-74
2022/10/21 04:20:51;;;;;;;1.30;1.20;;;16.50;88.80;;;;;;5075086;28;20511;-74
2022/10/21 04:23:18;;;;;;;0.90;0.90;;;16.50;88.80;;;;;;5075091;28;20468;-74
2022/10/21 04:25:45;;;;;;;1.07;1.07;;;16.50;88.70;;;;;;5075568;28;20815;-74
2022/10/21 04:28:14;;;;;;;1.10;1.00;;;16.50;88.70;;;;;;5075038;28;20445;-74
2022/10/21 04:30:40;;;;;;;1.13;1.03;;;16.50;88.70;;;;;;5074434;28;21027;-74
2022/10/21 04:33:07;;;;;;;0.90;0.90;;;16.50;89.10;;;;;;5074836;28;20441;-74
2022/10/21 04:35:34;;;;;;;1.20;0.97;;;16.50;89.10;;;;;;5074823;28;20454;-74
2022/10/21 04:38:00;;;;;;;1.40;1.23;;;16.50;89.00;;;;;;5074827;28;20487;-74
2022/10/21 04:40:27;;;;;;;1.30;1.20;;;16.50;89.30;;;;;;5074625;28;20453;-74
2022/10/21 04:42:54;;;;;;;1.10;1.10;;;16.50;89.80;;;;;;5074388;28;20827;-74
2022/10/21 04:45:22;;;;;;;1.10;1.00;;;16.40;90.20;;;;;;5074578;28;20457;-74
2022/10/21 04:47:49;;;;;;;1.00;1.00;;;16.50;90.00;;;;;;5074525;28;20453;-74
2022/10/21 04:50:15;;;;;;;1.20;1.10;;;16.30;90.50;;;;;;5074443;28;20482;-74
2022/10/21 04:52:42;;;;;;;0.90;0.90;;;16.40;90.50;;;;;;5074374;28;20519;-74
2022/10/21 04:55:09;;;;;;;1.03;0.83;;;16.30;90.80;;;;;;5074443;28;20452;-70
2022/10/21 04:57:36;;;;;;;0.97;0.97;;;16.30;91.00;;;;;;5074391;28;20446;-74
2022/10/21 05:00:05;;;;;;;1.23;1.23;;;16.20;91.30;;;;;;5074317;28;20442;-74
2022/10/21 05:02:33;;;;;;;0.90;0.90;;;16.10;92.00;;;;;;5073909;28;20477;-73
2022/10/21 05:04:59;;;;;;;1.10;1.00;;;16.10;92.10;;;;;;5073912;28;20959;-74
2022/10/21 05:07:26;;;;;;;0.80;0.80;;;16.10;92.00;;;;;;5074194;28;20477;-74
2022/10/21 05:09:53;;;;;;;1.30;1.20;;;16.10;92.00;;;;;;5074040;28;20495;-74
2022/10/21 05:12:19;;;;;;;1.20;1.10;;;16.00;92.50;;;;;;5073394;28;20480;-73
2022/10/21 05:14:46;;;;;;;1.10;1.00;;;16.00;92.70;;;;;;5073724;28;20845;-74
2022/10/21 05:17:13;;;;;;;0.90;0.90;;;16.00;93.00;;;;;;5074032;28;20445;-74
2022/10/21 05:19:41;;;;;;;1.17;1.10;;;16.00;93.00;;;;;;5073983;28;20496;-73
2022/10/21 05:22:07;;;;;;;0.97;0.97;;;16.00;93.00;;;;;;5073870;28;20458;-74
2022/10/21 05:24:34;;;;;;;0.80;0.80;;;16.00;93.50;;;;;;5073563;28;20959;-74
2022/10/21 05:27:01;;;;;;;1.13;0.80;;;16.10;93.20;;;;;;5073782;28;20448;-73
2022/10/21 05:29:27;;;;;;;0.90;0.90;;;16.10;93.20;;;;;;5073796;28;20452;-73
2022/10/21 05:31:54;;;;;;;0.93;0.93;;;16.00;93.80;;;;;;5073613;28;20494;-74
2022/10/21 05:34:30;;;;;;;0.97;0.97;;;16.00;94.90;;;;;;5073575;28;20936;-74
2022/10/21 05:36:58;;;;;;;1.00;0.90;;;16.00;93.90;;;;;;5073329;28;20945;-74
2022/10/21 05:39:25;;;;;;;0.80;0.80;;;15.90;94.30;;;;;;5073695;28;20449;-74
2022/10/21 05:41:52;;;;;;;0.90;0.90;;;15.90;94.90;;;;;;5073518;28;20466;-74
2022/10/21 05:44:19;;;;;;;0.93;0.93;;;15.80;94.80;;;;;;5073331;28;20448;-75
2022/10/21 05:46:45;;;;;;;0.80;0.80;;;15.80;95.20;;;;;;5073272;28;20952;-75
2022/10/21 05:49:12;;;;;;;1.00;0.90;;;15.80;95.30;;;;;;5073539;28;20460;-75
2022/10/21 05:51:39;;;;;;;0.80;0.80;;;15.90;95.30;;;;;;5073355;28;20542;-75
2022/10/21 05:54:07;;;;;;;1.13;1.03;;;16.00;94.90;;;;;;5073108;28;20450;-75
2022/10/21 05:56:34;;;;;;;1.37;1.00;;;16.10;94.40;;;;;;5073363;28;20519;-75
2022/10/21 05:59:00;;;;;;;1.00;0.90;;;16.20;94.40;;;;;;5073402;28;20452;-75
2022/10/21 06:01:27;;;;;;;0.80;0.80;;;16.20;94.00;;;;;;5072749;28;20493;-75
2022/10/21 06:03:54;;;;;;;0.87;0.83;;;16.40;93.50;;;;;;5073558;28;20442;-75
2022/10/21 06:06:20;;;;;;;0.80;0.80;;;16.40;94.00;;;;;;5073438;28;20814;-76
2022/10/21 06:08:47;;;;;;;1.10;1.00;;;16.40;94.00;;;;;;5073441;28;20441;-76
2022/10/21 06:11:18;;;;;;;1.20;1.10;;;16.30;94.00;;;;;;5072828;28;21012;-76
2022/10/21 06:13:45;;;;;;;0.83;0.83;;;16.10;94.10;;;;;;5073371;28;20449;-74
2022/10/21 06:16:13;;;;;;;0.90;0.90;;;16.10;94.60;;;;;;5072988;28;20499;-75
2022/10/21 06:18:40;;;;;;;0.90;0.90;;;16.10;94.70;;;;;;5073268;28;20492;-74
2022/10/21 06:21:08;;;;;;;1.00;1.00;;;16.30;94.30;;;;;;5072837;28;20469;-74
2022/10/21 06:23:35;;;;;;;1.10;1.00;;;16.30;94.20;;;;;;5075312;28;20449;-75
2022/10/21 06:26:03;;;;;;;1.80;1.10;;;16.20;94.20;;;;;;5077017;28;20856;-74
2022/10/21 06:28:34;;;;;;;0.83;0.83;;;16.30;94.40;;;;;;5077274;28;20452;-75
2022/10/21 06:31:01;;;;;;;0.90;0.90;;;16.40;94.00;;;;;;5077100;28;20634;-74
2022/10/21 06:33:28;;;;;;;1.10;1.00;;;16.50;93.40;;;;;;5077189;28;20457;-75
2022/10/21 06:35:55;;;;;;;0.97;0.97;;;16.50;93.30;;;;;;5077211;28;20446;-75
2022/10/21 06:38:21;;;;;;;1.20;1.00;;;16.50;93.90;;;;;;5077071;28;20449;-74
2022/10/21 06:40:48;;;;;;;1.47;1.37;;;16.60;93.50;;;;;;5076931;28;20800;-75
2022/10/21 06:43:15;;;;;;;1.10;1.00;;;16.60;92.90;;;;;;5076898;28;20441;-74
2022/10/21 06:45:43;;;;;;;1.03;1.00;;;16.40;93.80;;;;;;5077307;28;20477;-74
2022/10/21 06:48:12;;;;;;;0.90;0.90;;;16.40;94.00;;;;;;5076856;28;20506;-74
2022/10/21 06:50:39;;;;;;;0.87;0.87;;;16.60;93.60;;;;;;5076744;28;20473;-73
2022/10/21 06:53:06;;;;;;;1.00;0.90;;;16.60;93.20;;;;;;5076743;28;20452;-73
2022/10/21 06:55:32;;;;;;;1.03;1.03;;;16.60;93.20;;;;;;5077570;28;20450;-74
2022/10/21 06:57:59;;;;;;;1.00;0.90;;;16.70;93.40;;;;;;5076297;28;20937;-74
2022/10/21 07:00:26;;;;;;;1.30;1.20;;;16.80;92.80;;;;;;5076592;28;20514;-75
2022/10/21 07:02:54;;;;;;;1.43;1.20;;;16.70;92.50;;;;;;5076345;28;20967;-75
2022/10/21 07:05:21;;;;;;;0.80;0.80;;;16.60;92.80;;;;;;5076537;28;20819;-74
2022/10/21 07:07:47;;;;;;;0.87;0.87;;;16.50;93.60;;;;;;5076505;28;20445;-75
2022/10/21 07:10:14;;;;;;;1.37;0.83;;;16.50;93.60;;;;;;5076440;28;20442;-74
2022/10/21 07:12:41;;;;;;;1.30;1.23;;;16.40;93.80;;;;;;5076218;28;20496;-74
2022/10/21 07:15:08;;;;;;;1.47;1.00;;;16.40;94.00;;;;;;5076277;28;20456;-75
2022/10/21 07:17:35;;;;;;;0.80;0.80;;;16.40;94.50;;;;;;5076304;28;20819;-75
2022/10/21 07:20:03;;;;;;;1.70;1.50;;;16.40;94.30;;;;;;5076300;28;20441;-75
2022/10/21 07:22:30;;;;;;;0.90;0.90;;;16.40;94.40;;;;;;5076746;28;20465;-75
2022/10/21 07:24:57;;;;;;;0.90;0.90;;;16.40;94.00;;;;;;5076385;28;20503;-75
2022/10/21 07:27:24;;;;;;;1.23;1.17;;;16.30;95.10;;;;;;5076534;28;20449;-75
2022/10/21 07:29:50;;;;;;;1.10;1.10;;;16.30;95.00;;;;;;5076268;28;20449;-74
2022/10/21 07:32:17;;;;;;;0.80;0.80;;;16.30;95.40;;;;;;5076057;28;20489;-75
2022/10/21 07:34:44;;;;;;;0.80;0.80;;;16.40;95.30;;;;;;5075369;28;20446;-75
2022/10/21 07:37:12;;;;;;;1.17;1.10;;;16.50;94.40;;;;;;5075960;28;20446;-74
2022/10/21 07:39:38;;;;;;;0.80;0.80;;;16.60;94.20;;;;;;5075999;28;20457;-74
2022/10/21 07:42:05;;;;;;;1.37;1.27;;;16.50;94.40;;;;;;5075534;28;20465;-74
2022/10/21 07:44:32;;;;;;;0.80;0.80;;;16.70;94.40;;;;;;5075927;28;20445;-74
2022/10/21 07:46:58;;;;;;;0.90;0.90;;;16.80;93.80;;;;;;5075762;28;20446;-73
2022/10/21 07:49:25;;;;;;;1.00;0.93;;;16.90;93.60;;;;;;5075685;28;20445;-74
2022/10/21 07:51:53;;;;;;;0.90;0.90;;;17.00;93.20;;;;;;5075516;28;20493;-74
2022/10/21 07:54:21;;;;;;;0.90;0.90;;;17.00;92.30;;;;;;5075849;28;20452;-74
2022/10/21 07:56:50;;;;;;;1.47;1.30;;;16.90;92.70;;;;;;5075863;28;20446;-74
2022/10/21 07:59:18;;;;;;;1.20;1.10;;;16.60;93.50;;;;;;5075671;28;20438;-74
2022/10/21 08:01:46;;;;;;;3.03;1.07;;;16.50;94.50;;;;;;5075357;28;20473;-73
2022/10/21 08:04:16;;;;;;;1.03;1.00;;;16.60;94.20;;;;;;5075123;28;20791;-73
2022/10/21 08:06:43;;;;;;;0.80;0.80;;;16.70;94.00;;;;;;5075427;28;20445;-73
2022/10/21 08:09:10;;;;;;;1.10;1.10;;;16.90;93.60;;;;;;5075235;28;20929;-74
2022/10/21 08:11:38;;;;;;;1.07;0.97;;;16.80;93.50;;;;;;5075435;28;20493;-72
2022/10/21 08:14:06;;;;;;;1.10;1.10;;;16.90;93.20;;;;;;5075659;28;20454;-74
2022/10/21 08:16:34;;;;;;;0.90;0.90;;;16.80;93.70;;;;;;5075596;28;20548;-74
2022/10/21 08:19:01;;;;;;;1.20;1.10;;;16.90;93.80;;;;;;5075078;28;20541;-72
2022/10/21 08:21:30;;;;;;;1.00;0.90;;;16.70;93.60;;;;;;5075068;28;20838;-73
2022/10/21 08:23:56;;;;;;;1.10;1.00;;;16.60;94.20;;;;;;5075079;28;20450;-74
2022/10/21 08:26:23;;;;;;;1.50;1.40;;;16.40;94.80;;;;;;5074631;28;20446;-74
2022/10/21 08:28:51;;;;;;;0.97;0.97;;;16.40;95.20;;;;;;5075125;28;20929;-73
2022/10/21 08:31:20;;;;;;;0.80;0.80;;;16.40;95.20;;;;;;5075214;28;20485;-73
2022/10/21 08:33:47;;;;;;;0.77;0.77;;;16.50;95.10;;;;;;5075090;28;20453;-74
2022/10/21 08:36:16;;;;;;;1.20;1.10;;;16.70;94.70;;;;;;5075278;28;20453;-74
2022/10/21 08:38:43;;;;;;;0.70;0.70;;;16.70;94.70;;;;;;5074556;28;20959;-73
2022/10/21 08:41:17;;;;;;;1.30;1.20;;;16.90;94.20;;;;;;5074615;28;20461;-73
2022/10/21 08:43:44;;;;;;;0.80;0.70;;;16.90;93.20;;;;;;5074644;28;20452;-73
2022/10/21 08:46:16;;;;;;;1.20;1.10;;;17.00;93.40;;;;;;5073696;28;20769;-73
2022/10/21 08:48:47;;;;;;;1.13;1.03;;;17.10;92.70;;;;;;5074533;28;20532;-73
2022/10/21 08:51:27;;;;;;;0.90;0.90;;;17.10;92.70;;;;;;5074368;28;20481;-74
2022/10/21 08:53:57;;;;;;;0.83;0.83;;;17.00;92.10;;;;;;5074685;28;20437;-74
2022/10/21 08:56:24;;;;;;;0.80;0.80;;;17.00;92.70;;;;;;5074216;28;20850;-74
2022/10/21 08:58:52;;;;;;;1.00;0.83;;;16.90;93.10;;;;;;5074137;28;20967;-74
2022/10/21 09:01:24;;;;;;;0.97;0.90;;;16.90;93.20;;;;;;5074139;28;21115;-73
2022/10/21 09:03:58;;;;;;;0.80;0.80;;;17.00;93.10;;;;;;5074556;28;20426;-73
2022/10/21 09:06:29;;;;;;;0.80;0.80;;;16.90;93.30;;;;;;5074490;28;20430;-73
2022/10/21 09:09:03;;;;;;;1.27;0.83;;;16.90;93.50;;;;;;5074440;28;20438;-74
2022/10/21 09:11:44;;;;;;;1.00;0.90;;;17.10;93.10;;;;;;5074440;28;20492;-74
2022/10/21 09:14:44;;;;;;;1.00;1.00;;;17.20;92.80;;;;;;5074563;28;20438;-74
2022/10/21 09:17:24;;;;;;;0.83;0.83;;;17.30;92.50;;;;;;5075704;28;20512;-74
2022/10/21 09:19:58;;;;;;;0.83;0.83;;;17.10;92.50;;;;;;5074514;28;20430;-74
2022/10/21 09:22:39;;;;;;;0.70;0.70;;;17.00;92.10;;;;;;5074251;28;20462;-74
2022/10/21 09:25:18;;;;;;;1.33;0.80;;;16.90;93.00;;;;;;5074396;28;20788;-73
2022/10/21 09:27:45;;;;;;;0.80;0.80;;;16.70;93.40;;;;;;5075155;28;20421;-73
2022/10/21 09:30:16;;;;;;;0.83;0.83;;;16.70;94.20;;;;;;5074427;28;20461;-75
2022/10/21 09:32:48;;;;;;;0.90;0.90;;;16.70;94.60;;;;;;5073901;28;20854;-75
2022/10/21 09:35:22;;;;;;;1.00;0.90;;;16.60;94.10;;;;;;5074570;28;20434;-74
2022/10/21 09:37:54;;;;;;;0.90;0.90;;;16.60;94.30;;;;;;5074125;28;20447;-76
2022/10/21 09:40:22;;;;;;;0.80;0.80;;;16.70;94.00;;;;;;5074582;28;20430;-76
2022/10/21 09:42:51;;;;;;;0.70;0.70;;;16.70;93.70;;;;;;5074260;28;20446;-76
2022/10/21 09:45:24;;;;;;;1.03;0.80;;;16.80;92.80;;;;;;5074019;28;20467;-76
2022/10/21 09:47:57;;;;;;;0.60;0.60;;;16.60;93.20;;;;;;5074209;28;20437;-76
2022/10/21 09:50:25;;;;;;;0.80;0.80;;;16.50;93.40;;;;;;5074018;28;20430;-75
2022/10/21 09:52:59;;;;;;;0.70;0.70;;;16.50;93.40;;;;;;5074141;28;20485;-74
2022/10/21 09:55:27;;;;;;;0.70;0.70;;;16.50;93.90;;;;;;5074184;28;20437;-75
2022/10/21 09:57:57;;;;;;;0.70;0.70;;;16.60;93.50;;;;;;5073657;28;20458;-75
2022/10/21 10:00:41;;;;;;;0.90;0.80;;;16.80;93.70;;;;;;5073884;28;20912;-77
2022/10/21 10:03:09;;;;;;;1.03;0.70;;;16.60;93.10;;;;;;5073568;28;20433;-76
2022/10/21 10:05:40;;;;;;;0.90;0.80;;;16.60;93.70;;;;;;5073405;28;20850;-73
2022/10/21 10:08:30;;;;;;;0.70;0.70;;;16.70;94.20;;;;;;5072789;28;20445;-75
2022/10/21 10:11:05;;;;;;;1.10;0.90;;;16.70;93.00;;;;;;5073325;28;20468;-75
2022/10/21 10:13:31;;;;;;;0.73;0.70;;;16.70;93.40;;;;;;5073133;28;20485;-75
2022/10/21 10:16:21;;;;;;;0.80;0.80;;;16.60;93.20;;;;;;5072989;28;20941;-75
2022/10/21 10:18:50;;;;;;;0.60;0.60;;;16.60;93.50;;;;;;5073313;28;20514;-74
2022/10/21 10:21:19;;;;;;;0.60;0.60;;;16.50;93.50;;;;;;5073288;28;20520;-75
2022/10/21 10:23:49;;;;;;;0.77;0.77;;;16.60;94.00;;;;;;5073226;28;20442;-74
2022/10/21 10:26:23;;;;;;;0.93;0.77;;;16.60;93.60;;;;;;5073145;28;20449;-75
2022/10/21 10:28:53;;;;;;;0.80;0.80;;;16.70;93.70;;;;;;5072874;28;20970;-74
2022/10/21 10:31:37;;;;;;;0.80;0.77;;;16.60;93.40;;;;;;5073097;28;20481;-75
2022/10/21 10:34:08;;;;;;;1.10;1.00;;;16.70;94.50;;;;;;5073215;28;20425;-74
2022/10/21 10:36:37;;;;;;;0.73;0.73;;;16.70;93.90;;;;;;5073156;28;20433;-75
2022/10/21 10:39:07;;;;;;;0.97;0.90;;;16.60;94.20;;;;;;5072757;28;20445;-74
2022/10/21 10:41:37;;;;;;;0.97;0.80;;;16.70;94.20;;;;;;5072994;28;20561;-75
2022/10/21 10:44:10;;;;;;;0.70;0.70;;;16.70;94.20;;;;;;5073092;28;20434;-74
2022/10/21 10:46:38;;;;;;;0.80;0.80;;;16.80;94.40;;;;;;5073047;28;20442;-74
2022/10/21 10:49:21;;;;;;;0.70;0.70;;;16.80;94.40;;;;;;5072719;28;20929;-74
2022/10/21 10:52:02;;;;;;;0.70;0.70;;;16.90;94.40;;;;;;5072976;28;20469;-74
2022/10/21 10:54:28;;;;;;;0.80;0.80;;;16.90;93.80;;;;;;5073849;28;20818;-75
2022/10/21 10:56:59;;;;;;;1.17;1.00;;;16.90;93.70;;;;;;5072829;28;20445;-75
2022/10/21 10:59:32;;;;;;;0.80;0.80;;;16.80;93.20;;;;;;5072869;28;20441;-75
2022/10/21 11:02:14;;;;;;;0.80;0.80;;;16.90;93.60;;;;;;5077517;28;20492;-75
2022/10/21 11:04:51;;;;;;;0.70;0.70;;;17.00;93.50;;;;;;5073611;28;20434;-74
2022/10/21 11:07:25;;;;;;;0.87;0.70;;;17.00;93.60;;;;;;5074257;28;20440;-75
2022/10/21 11:09:58;;;;;;;0.70;0.70;;;17.00;93.30;;;;;;5075322;28;20448;-75
2022/10/21 11:12:26;;;;;;;0.90;0.90;;;17.00;92.90;;;;;;5078246;28;20496;-75
2022/10/21 11:14:56;;;;;;;0.70;0.70;;;17.20;93.50;;;;;;5077587;28;20449;-76
2022/10/21 11:17:29;;;;;;;0.80;0.77;;;17.20;92.20;;;;;;5078328;28;20488;-78
2022/10/21 11:20:05;;;;;;;0.67;0.60;;;17.20;92.80;;;;;;5077596;28;20442;-75
2022/10/21 11:22:39;;;;;;;0.87;0.70;;;17.30;92.80;;;;;;5077144;28;20982;-76
2022/10/21 11:25:18;;;;;;;0.80;0.80;;;17.40;92.60;;;;;;5078329;28;20429;-77
2022/10/21 11:28:12;;;;;;;0.80;0.80;;;17.40;92.00;;;;;;5077514;28;20441;-76
2022/10/21 11:30:53;;;;;;;0.70;0.63;;;17.50;91.30;;;;;;5077791;28;20439;-76
2022/10/21 11:33:29;;;;;;;0.90;0.80;;;17.50;90.90;;;;;;5078508;28;20461;-76
2022/10/21 11:36:04;;;;;;;0.80;0.80;;;17.50;90.60;;;;;;5077432;28;20440;-75
2022/10/21 11:38:46;;;;;;;0.60;0.60;;;17.60;91.70;;;;;;5076756;28;20433;-74
2022/10/21 11:41:24;;;;;;;0.70;0.70;;;17.60;90.50;;;;;;5076819;28;20466;-74
2022/10/21 11:44:02;;;;;;;0.60;0.60;;;17.80;90.90;;;;;;5077323;28;20429;-75
2022/10/21 11:46:38;;;;;;;0.60;0.60;;;17.70;88.50;;;;;;5077123;28;20430;-73
2022/10/21 11:49:18;;;;;;;0.70;0.60;;;17.70;88.90;;;;;;5078732;28;20445;-73
2022/10/21 11:51:53;;;;;;;0.60;0.60;;;17.80;89.70;;;;;;5078115;28;20461;-73
2022/10/21 11:54:47;;;;;;;0.60;0.60;;;17.80;88.70;;;;;;5078016;28;20425;-72
2022/10/21 11:57:20;;;;;;;0.80;0.80;;;17.70;89.10;;;;;;5067983;28;20449;-74
2022/10/21 12:00:01;;;;;;;0.60;0.60;;;17.80;88.60;;;;;;5078094;28;20426;-74
2022/10/21 12:02:57;;;;;;;0.80;0.70;;;17.90;87.70;;;;;;5078287;28;20477;-75
2022/10/21 12:05:30;;;;;;;0.60;0.50;;;18.00;87.90;;;;;;5077974;28;20449;-76
2022/10/21 12:08:08;;;;;;;0.80;0.70;;;17.90;87.00;;;;;;5077506;28;20428;-76
2022/10/21 12:10:37;;;;;;;0.60;0.50;;;18.00;87.90;;;;;;5078599;28;20467;-75
2022/10/21 12:13:11;;;;;;;0.70;0.60;;;17.90;87.70;;;;;;5077372;28;21007;-75
2022/10/21 12:15:43;;;;;;;0.60;0.60;;;17.80;87.10;;;;;;5076407;28;20430;-75
2022/10/21 12:18:15;;;;;;;1.13;0.60;;;17.80;87.30;;;;;;5075976;28;20461;-74
2022/10/21 12:20:43;;;;;;;0.70;0.60;;;17.90;87.00;;;;;;5075409;28;20441;-75
2022/10/21 12:23:15;;;;;;;1.10;1.00;;;17.80;88.10;;;;;;5075446;28;20450;-75
2022/10/21 12:25:48;;;;;;;0.70;0.60;;;17.70;86.60;;;;;;5076295;28;20434;-74
2022/10/21 12:28:24;;;;;;;0.70;0.60;;;17.70;87.70;;;;;;5075558;28;20413;-75
2022/10/21 12:30:56;;;;;;;0.60;0.60;;;17.60;86.70;;;;;;5075568;28;20833;-75
2022/10/21 12:33:35;;;;;;;0.60;0.60;;;17.70;87.50;;;;;;5074806;28;20458;-75
2022/10/21 12:36:37;;;;;;;0.80;0.70;;;17.70;87.30;;;;;;5074924;28;20426;-75
2022/10/21 12:39:05;;;;;;;0.57;0.50;;;17.70;87.40;;;;;;5074810;28;20476;-75
2022/10/21 12:41:35;;;;;;;0.60;0.50;;;17.80;87.50;;;;;;5074623;28;20477;-75
2022/10/21 12:44:07;;;;;;;0.90;0.50;;;17.80;86.80;;;;;;5074662;28;20492;-73
2022/10/21 12:46:37;;;;;;;0.60;0.50;;;17.80;87.30;;;;;;5074700;28;20456;-75
2022/10/21 12:49:07;;;;;;;0.57;0.57;;;17.80;86.10;;;;;;5074568;28;20426;-75
2022/10/21 12:51:35;;;;;;;0.60;0.60;;;17.50;87.60;;;;;;5074553;28;20461;-75
2022/10/21 12:54:08;;;;;;;0.97;0.60;;;17.50;87.90;;;;;;5074688;28;20504;-75
2022/10/21 12:56:37;;;;;;;0.60;0.60;;;17.50;88.90;;;;;;5074645;28;20438;-74
2022/10/21 12:59:06;;;;;;;0.60;0.53;;;17.70;88.70;;;;;;5074619;28;20454;-74
2022/10/21 13:01:37;;;;;;;0.70;0.60;;;17.70;88.20;;;;;;5074424;28;20482;-74
2022/10/21 13:04:05;;;;;;;0.70;0.70;;;17.80;88.70;;;;;;5074836;28;20484;-75
2022/10/21 13:06:52;;;;;;;0.63;0.60;;;17.80;89.70;;;;;;5074227;28;20515;-74
2022/10/21 13:09:35;;;;;;;0.70;0.60;;;17.90;89.50;;;;;;5074189;28;20532;-74
2022/10/21 13:12:25;;;;;;;0.73;0.70;;;17.90;89.10;;;;;;5074306;28;20465;-74
2022/10/21 13:14:54;;;;;;;0.60;0.50;;;17.90;90.10;;;;;;5074274;28;20442;-75
2022/10/21 13:17:52;;;;;;;0.60;0.53;;;17.70;88.10;;;;;;5074258;28;20441;-75
2022/10/21 13:20:47;;;;;;;0.70;0.70;;;17.60;89.00;;;;;;5012226;28;20432;-75
2022/10/21 13:23:37;;;;;;;0.70;0.60;;;17.60;90.00;;;;;;5072223;28;20449;-75
2022/10/21 13:26:18;;;;;;;0.60;0.60;;;17.70;89.40;;;;;;5073929;28;20426;-74
2022/10/21 13:29:01;;;;;;;0.80;0.60;;;17.70;89.90;;;;;;5074751;28;20414;-75
2022/10/21 13:31:28;;;;;;;0.60;0.50;;;17.50;90.00;;;;;;5074222;28;20857;-75
2022/10/21 13:33:56;;;;;;;0.67;0.67;;;17.40;90.90;;;;;;5073692;28;20492;-74
2022/10/21 13:36:33;;;;;;;0.70;0.60;;;17.40;90.10;;;;;;5074506;28;20454;-74
2022/10/21 13:39:06;;;;;;;0.50;0.50;;;17.30;90.40;;;;;;5074196;28;20434;-73
2022/10/21 13:41:34;;;;;;;0.60;0.60;;;17.30;90.10;;;;;;5073718;28;20501;-74
2022/10/21 13:44:04;;;;;;;1.13;0.60;;;17.10;90.40;;;;;;5073650;28;20441;-73
2022/10/21 13:46:35;;;;;;;0.60;0.50;;;17.10;90.70;;;;;;5073970;28;20850;-75
2022/10/21 13:49:01;;;;;;;0.70;0.70;;;17.00;91.20;;;;;;5073615;28;20437;-74
2022/10/21 13:51:30;;;;;;;0.60;0.60;;;16.80;91.70;;;;;;5073439;28;20462;-74
2022/10/21 13:53:59;;;;;;;0.70;0.70;;;16.80;91.60;;;;;;5073419;28;20481;-74
2022/10/21 13:56:28;;;;;;;0.60;0.50;;;16.80;92.00;;;;;;5073439;28;20454;-75
2022/10/21 13:58:56;;;;;;;0.60;0.60;;;16.70;92.20;;;;;;5073449;28;20829;-75
2022/10/21 14:01:25;;;;;;;0.60;0.60;;;16.70;91.80;;;;;;5073096;28;20534;-74
2022/10/21 14:03:54;;;;;;;0.60;0.57;;;16.60;92.40;;;;;;5073380;28;20515;-75
2022/10/21 14:06:29;;;;;;;0.70;0.60;;;16.60;92.70;;;;;;5073380;28;20816;-74
2022/10/21 14:08:57;;;;;;;0.60;0.50;;;16.60;92.60;;;;;;5073331;28;20434;-75
2022/10/21 14:11:27;;;;;;;0.60;0.50;;;16.70;93.10;;;;;;5073271;28;20477;-76
2022/10/21 14:13:57;;;;;;;0.67;0.67;;;16.70;92.60;;;;;;5073747;28;20554;-76
2022/10/21 14:16:31;;;;;;;0.80;0.60;;;16.70;92.50;;;;;;5073439;28;20457;-75
2022/10/21 14:19:00;;;;;;;0.60;0.60;;;16.70;92.60;;;;;;5073238;28;20426;-75
2022/10/21 14:21:31;;;;;;;0.60;0.60;;;16.80;92.00;;;;;;5073235;28;20465;-75
2022/10/21 14:23:58;;;;;;;0.70;0.70;;;16.70;92.00;;;;;;5073300;28;20437;-75
2022/10/21 14:26:29;;;;;;;0.60;0.60;;;16.70;92.50;;;;;;5073144;28;20495;-75
2022/10/21 14:28:59;;;;;;;0.70;0.60;;;16.80;92.60;;;;;;5073200;28;20453;-75
2022/10/21 14:31:26;;;;;;;0.60;0.60;;;16.80;92.30;;;;;;5072661;28;20869;-75
2022/10/21 14:33:53;;;;;;;0.80;0.60;;;17.00;92.40;;;;;;5072996;28;20477;-75
2022/10/21 14:36:23;;;;;;;0.67;0.50;;;17.00;91.70;;;;;;5073144;28;20450;-75
2022/10/21 14:38:59;;;;;;;0.70;0.70;;;17.00;91.50;;;;;;5073212;28;20434;-76
2022/10/21 14:41:30;;;;;;;0.60;0.50;;;17.00;91.40;;;;;;5072991;28;20505;-75
2022/10/21 14:44:05;;;;;;;0.60;0.60;;;17.00;90.30;;;;;;5074095;28;20433;-76
2022/10/21 14:46:40;;;;;;;0.60;0.50;;;17.00;91.10;;;;;;5077076;28;20648;-75
2022/10/21 14:49:19;;;;;;;0.60;0.60;;;17.00;91.10;;;;;;5076926;28;20443;-75
2022/10/21 14:51:46;;;;;;;0.60;0.50;;;16.80;91.20;;;;;;5077114;28;20469;-76
2022/10/21 14:54:24;;;;;;;0.70;0.60;;;16.70;91.90;;;;;;5076868;28;20485;-76
2022/10/21 14:56:51;;;;;;;0.60;0.60;;;16.70;92.00;;;;;;5076727;28;20437;-75
2022/10/21 14:59:24;;;;;;;0.60;0.50;;;16.70;91.80;;;;;;5076645;28;20852;-75
2022/10/21 15:01:51;;;;;;;0.60;0.50;;;16.70;91.90;;;;;;5076249;28;20500;-75
2022/10/21 15:04:41;;;;;;;0.80;0.50;;;16.70;92.00;;;;;;5076475;28;20503;-75
2022/10/21 15:07:16;;;;;;;0.60;0.60;;;16.60;91.90;;;;;;5076528;28;20452;-74
2022/10/21 15:09:57;;;;;;;0.60;0.50;;;16.60;91.80;;;;;;5076281;28;20997;-75
2022/10/21 15:12:23;;;;;;;0.60;0.60;;;16.50;92.00;;;;;;5076556;28;20477;-75
2022/10/21 15:14:51;;;;;;;0.60;0.60;;;16.50;91.90;;;;;;5076049;28;20473;-76
2022/10/21 15:17:18;;;;;;;0.60;0.50;;;16.60;92.30;;;;;;5077761;28;20472;-76
2022/10/21 15:19:47;;;;;;;0.50;0.50;;;16.60;92.30;;;;;;5076384;28;20456;-75
2022/10/21 15:22:29;;;;;;;0.60;0.50;;;16.70;91.70;;;;;;5076290;28;20469;-75
2022/10/21 15:25:04;;;;;;;0.60;0.60;;;16.60;91.20;;;;;;5076315;28;20521;-76
2022/10/21 15:27:34;;;;;;;0.60;0.50;;;16.60;91.60;;;;;;5076027;28;20436;-75
2022/10/21 15:30:13;;;;;;;0.80;0.60;;;16.70;91.40;;;;;;5075903;28;20812;-74
2022/10/21 15:32:40;;;;;;;0.80;0.53;;;16.70;90.90;;;;;;5076067;28;20484;-75
2022/10/21 15:35:13;;;;;;;0.50;0.50;;;16.70;90.50;;;;;;5075931;28;20480;-75
2022/10/21 15:37:40;;;;;;;0.60;0.50;;;16.70;90.30;;;;;;5075812;28;20480;-75
2022/10/21 15:40:08;;;;;;;0.77;0.77;;;16.60;90.70;;;;;;5075917;28;20442;-76
2022/10/21 15:42:35;;;;;;;0.60;0.57;;;16.60;90.80;;;;;;5075814;28;20465;-75
2022/10/21 15:45:02;;;;;;;0.60;0.60;;;16.50;90.80;;;;;;5075555;28;20960;-75
2022/10/21 15:47:30;;;;;;;0.60;0.60;;;16.60;91.20;;;;;;5075774;28;20499;-75
2022/10/21 15:49:57;;;;;;;0.60;0.60;;;16.50;90.80;;;;;;5075602;28;20933;-75
2022/10/21 15:52:24;;;;;;;0.60;0.60;;;16.40;90.80;;;;;;5075635;28;20474;-74
2022/10/21 15:54:50;;;;;;;0.60;0.50;;;16.50;90.60;;;;;;5075588;28;20920;-75
2022/10/21 15:57:19;;;;;;;0.60;0.57;;;16.50;90.50;;;;;;5074967;28;20441;-76
2022/10/21 15:59:46;;;;;;;0.60;0.50;;;16.60;90.10;;;;;;5075599;28;20450;-75
2022/10/21 16:02:15;;;;;;;0.60;0.60;;;16.60;90.30;;;;;;5075061;28;20480;-74
2022/10/21 16:04:43;;;;;;;0.60;0.50;;;16.60;89.90;;;;;;5075508;28;20845;-75
2022/10/21 16:07:18;;;;;;;0.60;0.60;;;16.60;90.30;;;;;;5075435;28;20522;-75